LIPB 192050Z VRB04KT CAVOK 22/12 Q1026 LIPB 191950Z 17006KT 100V230 CAVOK 23/12 Q1025 LIPB 191850Z 17008KT 120V240 CAVOK 24/12 Q1024 LIPB 191750Z 17009KT 130V200 CAVOK 26/12 Q1023 LIPB 191650Z 17011KT 150V220 CAVOK 27/12 Q1022 LIPB 191550Z 17008KT 140V200 CAVOK 28/13 Q1022 LIPB 191450Z 18011KT 150V210 CAVOK 30/12 Q1022 LIPB 191350Z 16010G20KT 130V230 CAVOK 30/13 Q1023 LIPB 191250Z 17008KT 140V210 CAVOK 29/13 Q1023 LIPB 191150Z 14005KT 100V190 9999 FEW090 28/12 Q1024 LIPB 191050Z 16004KT 090V200 CAVOK 28/13 Q1025 LIPB 190950Z 16005KT 090V250 CAVOK 26/12 Q1026 LIPB 190850Z 13004KT 050V210 9999 FEW060 25/12 Q1027 LIPB 190750Z 16003KT 080V240 9999 FEW060 SCT090 23/11 Q1027 LIPB 190650Z 19005KT 150V270 9999 FEW060 BKN080 21/12 Q1027 LIPB 190550Z VRB04KT 9999 FEW060 BKN080 21/12 Q1026 LIPB 190450Z 13005KT 090V180 9999 FEW050 BKN080 21/11 Q1026 LIPB 182050Z 17004KT 130V230 9999 SCT120 22/14 Q1024 LIPB 181950Z VRB07KT 9999 FEW120 23/14 Q1023 LIPB 181850Z 16008KT 100V240 9999 FEW090 24/14 Q1022 LIPB 181750Z 17010KT CAVOK 25/14 Q1021 LIPB 181650Z 17011KT 140V220 9999 FEW080 27/14 Q1020 LIPB 181550Z 17012KT 9999 FEW090 28/14 Q1019 LIPB 181450Z 17011KT 9999 FEW100 29/13 Q1019 LIPB 181350Z 18010G20KT 150V230 9999 FEW090 31/12 Q1019

METAR Messwerte "BOLZANO(CIV/IT-A" LIPB

Zurück zur Übersicht

Ortsname
Ländercode / m ü. NN
Zeit Temperatur Taupunkt Rel.
Luftfeuchte
Luftdruck:
Altimeter
NN
Station
Wind in Beaufort
(Knoten)
Sichtweite
(Meter)
Wolken
(Meter über Grund)
Wettererscheinung
BOLZANO(CIV/IT-A
IT 239
Do 19.05. 22:50221253 %1026
1025
997
Uml 2 (4)>= 10000Nicht signifikant 
BOLZANO(CIV/IT-A
IT 239
Do 19.05. 21:50231250 %1025
1024
996
S 2 (6)
O - SW
>= 10000Nicht signifikant 
BOLZANO(CIV/IT-A
IT 239
Do 19.05. 20:50241247 %1024
1023
995
S 3 (8)
OSO - WSW
>= 10000Nicht signifikant 
BOLZANO(CIV/IT-A
IT 239
Do 19.05. 19:50261242 %1023
1022
994
S 3 (9)
SO - SSW
>= 10000Nicht signifikant 
BOLZANO(CIV/IT-A
IT 239
Do 19.05. 18:50271239 %1022
1021
993
S 4 (11)
SSO - SW
>= 10000Nicht signifikant 
BOLZANO(CIV/IT-A
IT 239
Do 19.05. 17:50281340 %1022
1021
993
S 3 (8)
SO - SSW
>= 10000Nicht signifikant 
BOLZANO(CIV/IT-A
IT 239
Do 19.05. 16:50301233 %1022
1021
993
S 4 (11)
SSO - SSW
>= 10000Nicht signifikant 
BOLZANO(CIV/IT-A
IT 239
Do 19.05. 15:50301335 %1023
1022
994
SSO 3 (10) - 5 (20)
SO - SW
>= 10000Nicht signifikant 
BOLZANO(CIV/IT-A
IT 239
Do 19.05. 14:50291337 %1023
1022
994
S 3 (8)
SO - SSW
>= 10000Nicht signifikant 
BOLZANO(CIV/IT-A
IT 239
Do 19.05. 13:50281237 %1024
1023
995
SO 2 (5)
O - S
>= 10000Leicht bewölkt (2700) 
BOLZANO(CIV/IT-A
IT 239
Do 19.05. 12:50281340 %1025
1024
996
SSO 2 (4)
O - SSW
>= 10000Nicht signifikant 
BOLZANO(CIV/IT-A
IT 239
Do 19.05. 11:50261242 %1026
1025
997
SSO 2 (5)
O - WSW
>= 10000Nicht signifikant 
BOLZANO(CIV/IT-A
IT 239
Do 19.05. 10:50251244 %1027
1026
998
SO 2 (4)
NO - SSW
>= 10000Leicht bewölkt (1800) 
BOLZANO(CIV/IT-A
IT 239
Do 19.05. 09:50231147 %1027
1026
998
SSO 2 (3)
O - WSW
>= 10000Wolkig (2700)
Leicht bewölkt (1800)
 
BOLZANO(CIV/IT-A
IT 239
Do 19.05. 08:50211256 %1027
1026
998
S 2 (5)
SSO - W
>= 10000Stark bewölkt (2400)
Leicht bewölkt (1800)
 
BOLZANO(CIV/IT-A
IT 239
Do 19.05. 07:50211256 %1026
1025
997
Uml 2 (4)>= 10000Stark bewölkt (2400)
Leicht bewölkt (1800)
 
BOLZANO(CIV/IT-A
IT 239
Do 19.05. 06:50211153 %1026
1025
997
SO 2 (5)
O - S
>= 10000Stark bewölkt (2400)
Leicht bewölkt (1500)
 
BOLZANO(CIV/IT-A
IT 239
Mi 18.05. 22:50221460 %1024
1023
995
S 2 (4)
SO - SW
>= 10000Wolkig (3700) 
BOLZANO(CIV/IT-A
IT 239
Mi 18.05. 21:50231457 %1023
1022
994
Uml 3 (7)>= 10000Leicht bewölkt (3700) 
BOLZANO(CIV/IT-A
IT 239
Mi 18.05. 20:50241454 %1022
1021
993
SSO 3 (8)
O - WSW
>= 10000Leicht bewölkt (2700) 
BOLZANO(CIV/IT-A
IT 239
Mi 18.05. 19:50251450 %1021
1020
992
S 3 (10)>= 10000Nicht signifikant 
BOLZANO(CIV/IT-A
IT 239
Mi 18.05. 18:50271445 %1020
1019
991
S 4 (11)
SO - SW
>= 10000Leicht bewölkt (2400) 
BOLZANO(CIV/IT-A
IT 239
Mi 18.05. 17:50281442 %1019
1018
990
S 4 (12)>= 10000Leicht bewölkt (2700) 
BOLZANO(CIV/IT-A
IT 239
Mi 18.05. 16:50291337 %1019
1018
990
S 4 (11)>= 10000Leicht bewölkt (3000) 
BOLZANO(CIV/IT-A
IT 239
Mi 18.05. 15:50311231 %1019
1018
990
S 3 (10) - 5 (20)
SSO - SW
>= 10000Leicht bewölkt (2700) 

Altimeter: Einstellung am Altimeter (Höhenmesser), die Höhe 0 muss auf diesen Luftdruckwert zeigen, damit das Gerät die Stationshöhe richtig anzeigt.

NN: Luftdruck reduziert auf "Normal Null", auf Meereshöhe, dieser von der Temperatur abhängige Wert wird bisweilen unkorrekt einfach als "Luftdruck" bezeichnet. Eigentlich nur eine fiktive Größe, die es erlaubt, Stationen auf unterschiedlichen Höhen miteinander zu vergleichen.

Station: Realer Luftdruck an der Station.